This is the latest recevied weather packets stored in our database for station/object YN1JLX-13. If no packets are shown the sender has not sent any weather packets the latest 10 day(s).
| Time | Temp. | Humidity | Pressure | Rain* | Wind** | Luminosity | Snow |
|---|---|---|---|---|---|---|---|
| 1777929866 | 28.33° C | 35% | 1008 hPa | 0 mm | - | - | - |
| 1777929266 | 29.44° C | 35% | 1008 hPa | 0 mm | - | - | - |
| 1777928665 | 28.89° C | 35% | 1008 hPa | 0 mm | - | - | - |
| 1777928065 | 30° C | 35% | 1008 hPa | 0 mm | - | - | - |
| 1777927465 | 28.33° C | 39% | 1008 hPa | 0 mm | - | - | - |
| 1777926865 | 28.33° C | 39% | 1008 hPa | 0 mm | - | - | - |
| 1777926264 | 28.89° C | 38% | 1008 hPa | 0 mm | - | - | - |
| 1777925663 | 28.89° C | 38% | 1008 hPa | 0 mm | - | - | - |
| 1777925063 | 28.89° C | 38% | 1008 hPa | 0 mm | - | - | - |
| 1777924463 | 28.89° C | 38% | 1008 hPa | 0 mm | - | - | - |
| 1777923862 | 28.89° C | 37% | 1009 hPa | 0 mm | - | - | - |
| 1777923262 | 29.44° C | 36% | 1009 hPa | 0 mm | - | - | - |
| 1777922662 | 28.33° C | 39% | 1010 hPa | 0 mm | - | - | - |
| 1777922061 | 28.33° C | 39% | 1010 hPa | 0 mm | - | - | - |
| 1777921461 | 28.33° C | 39% | 1010 hPa | 0 mm | - | - | - |
| 1777920861 | 28.33° C | 39% | 1010 hPa | 0 mm | - | - | - |
| 1777920261 | 28.89° C | 38% | 1010 hPa | 0 mm | - | - | - |
| 1777919660 | 28.89° C | 40% | 1010 hPa | 0 mm | - | - | - |
| 1777919060 | 27.78° C | 43% | 1011 hPa | 0 mm | - | - | - |
| 1777918459 | 27.22° C | 45% | 1011 hPa | 0 mm | - | - | - |
| 1777917859 | 28.33° C | 45% | 1011 hPa | 0 mm | - | - | - |
| 1777917258 | 27.78° C | 44% | 1011 hPa | 0 mm | - | - | - |
| 1777916658 | 28.33° C | 43% | 1011 hPa | 0 mm | - | - | - |
| 1777916057 | 26.11° C | 50% | 1011 hPa | 0 mm | - | - | - |
| 1777915457 | 27.22° C | 50% | 1012 hPa | 0 mm | - | - | - |
* Rain latest hour (hover to see other rain measurements)
** Current wind speed in m/s (hover to see current wind gust speed)